< < Back
Terminal Aerodrome Forecast


Current Version              Previous Versions:   1  2  3  4  5  6  7  8  9  

Terminal Aerodrome Forecast

306
FTUS42 KGSP 221700
TAFAND
TAF
KAND 221731Z 2218/2318 35007KT P6SM SKC
     FM230600 01003KT P6SM SKC=



Latest METAR

341
SAUS70 KWBC 231100
MTRAND
METAR KAND 231056Z AUTO 00000KT 3SM BR CLR 03/03 A3010 RMK AO2 SLP193
T00280028


USA.gov is the U.S. government's official web portal to all federal, state and local government web resources and services.